sensor_id;sensor_type;location;lat;lon;timestamp;temperature;humidity
33811;DHT22;20119;48.334;16.206;2023-02-28T00:01:22;0.60;99.90
33811;DHT22;20119;48.334;16.206;2023-02-28T00:03:50;0.50;99.90
33811;DHT22;20119;48.334;16.206;2023-02-28T00:06:17;0.40;99.90
33811;DHT22;20119;48.334;16.206;2023-02-28T00:08:44;0.40;99.90
33811;DHT22;20119;48.334;16.206;2023-02-28T00:11:13;0.30;99.90
33811;DHT22;20119;48.334;16.206;2023-02-28T00:13:43;0.20;99.90
33811;DHT22;20119;48.334;16.206;2023-02-28T00:16:16;0.20;99.90
33811;DHT22;20119;48.334;16.206;2023-02-28T00:18:43;0.10;99.90
33811;DHT22;20119;48.334;16.206;2023-02-28T00:21:10;0.00;99.90
33811;DHT22;20119;48.334;16.206;2023-02-28T00:23:38;-0.10;99.90
33811;DHT22;20119;48.334;16.206;2023-02-28T00:26:05;-0.10;99.90
33811;DHT22;20119;48.334;16.206;2023-02-28T00:28:33;-0.10;99.90
33811;DHT22;20119;48.334;16.206;2023-02-28T00:31:00;-0.10;99.90
33811;DHT22;20119;48.334;16.206;2023-02-28T00:33:29;-0.20;99.90
33811;DHT22;20119;48.334;16.206;2023-02-28T00:36:04;-0.20;99.90
33811;DHT22;20119;48.334;16.206;2023-02-28T00:38:31;-0.20;99.90
33811;DHT22;20119;48.334;16.206;2023-02-28T00:40:58;-0.20;99.90
33811;DHT22;20119;48.334;16.206;2023-02-28T00:43:31;-0.30;99.90
33811;DHT22;20119;48.334;16.206;2023-02-28T00:45:58;-0.30;99.90
33811;DHT22;20119;48.334;16.206;2023-02-28T00:48:25;-0.40;99.90
33811;DHT22;20119;48.334;16.206;2023-02-28T00:50:54;-0.30;99.90
33811;DHT22;20119;48.334;16.206;2023-02-28T00:53:22;-0.30;99.90
33811;DHT22;20119;48.334;16.206;2023-02-28T00:55:49;-0.30;99.90
33811;DHT22;20119;48.334;16.206;2023-02-28T00:58:16;-0.40;99.90
33811;DHT22;20119;48.334;16.206;2023-02-28T01:00:43;-0.30;99.90
33811;DHT22;20119;48.334;16.206;2023-02-28T01:03:14;-0.30;99.90
33811;DHT22;20119;48.334;16.206;2023-02-28T01:05:41;-0.30;99.90
33811;DHT22;20119;48.334;16.206;2023-02-28T01:08:10;-0.30;99.90
33811;DHT22;20119;48.334;16.206;2023-02-28T01:10:37;-0.30;99.90
33811;DHT22;20119;48.334;16.206;2023-02-28T01:13:04;-0.30;99.90
33811;DHT22;20119;48.334;16.206;2023-02-28T01:15:31;-0.30;99.90
33811;DHT22;20119;48.334;16.206;2023-02-28T01:17:59;-0.40;99.90
33811;DHT22;20119;48.334;16.206;2023-02-28T01:20:26;-0.40;99.90
33811;DHT22;20119;48.334;16.206;2023-02-28T01:22:53;-0.40;99.90
33811;DHT22;20119;48.334;16.206;2023-02-28T01:25:22;-0.40;99.90
33811;DHT22;20119;48.334;16.206;2023-02-28T01:27:49;-0.50;99.90
33811;DHT22;20119;48.334;16.206;2023-02-28T01:30:16;-0.40;99.90
33811;DHT22;20119;48.334;16.206;2023-02-28T01:33:02;-0.50;99.90
33811;DHT22;20119;48.334;16.206;2023-02-28T01:35:32;-0.50;99.90
33811;DHT22;20119;48.334;16.206;2023-02-28T01:37:59;-0.50;99.90
33811;DHT22;20119;48.334;16.206;2023-02-28T01:40:29;-0.60;99.90
33811;DHT22;20119;48.334;16.206;2023-02-28T01:42:56;-0.60;99.90
33811;DHT22;20119;48.334;16.206;2023-02-28T01:45:26;-0.60;99.90
33811;DHT22;20119;48.334;16.206;2023-02-28T01:47:57;-0.60;99.90
33811;DHT22;20119;48.334;16.206;2023-02-28T01:50:28;-0.60;99.90
33811;DHT22;20119;48.334;16.206;2023-02-28T01:52:59;-0.60;99.90
33811;DHT22;20119;48.334;16.206;2023-02-28T01:55:29;-0.60;99.90
33811;DHT22;20119;48.334;16.206;2023-02-28T01:58:00;-0.60;99.90
33811;DHT22;20119;48.334;16.206;2023-02-28T02:00:29;-0.60;99.90
33811;DHT22;20119;48.334;16.206;2023-02-28T02:02:58;-0.50;99.90
33811;DHT22;20119;48.334;16.206;2023-02-28T02:05:29;-0.50;99.90
33811;DHT22;20119;48.334;16.206;2023-02-28T02:08:01;-0.50;99.90
33811;DHT22;20119;48.334;16.206;2023-02-28T02:10:34;-0.50;99.90
33811;DHT22;20119;48.334;16.206;2023-02-28T02:13:11;-0.40;99.90
33811;DHT22;20119;48.334;16.206;2023-02-28T02:15:45;-0.40;99.90
33811;DHT22;20119;48.334;16.206;2023-02-28T02:18:23;-0.40;99.90
33811;DHT22;20119;48.334;16.206;2023-02-28T02:21:28;-0.40;99.90
33811;DHT22;20119;48.334;16.206;2023-02-28T02:24:22;-0.40;99.90
33811;DHT22;20119;48.334;16.206;2023-02-28T02:27:16;-0.30;99.90
33811;DHT22;20119;48.334;16.206;2023-02-28T02:30:04;-0.30;99.90
33811;DHT22;20119;48.334;16.206;2023-02-28T02:33:12;-0.40;99.90
33811;DHT22;20119;48.334;16.206;2023-02-28T02:35:48;-0.40;99.90
33811;DHT22;20119;48.334;16.206;2023-02-28T02:38:24;-0.30;99.90
33811;DHT22;20119;48.334;16.206;2023-02-28T02:41:04;-0.20;99.90
33811;DHT22;20119;48.334;16.206;2023-02-28T02:43:36;-0.20;99.90
33811;DHT22;20119;48.334;16.206;2023-02-28T02:46:10;-0.30;99.90
33811;DHT22;20119;48.334;16.206;2023-02-28T02:48:40;-0.20;99.90
33811;DHT22;20119;48.334;16.206;2023-02-28T02:51:14;-0.20;99.90
33811;DHT22;20119;48.334;16.206;2023-02-28T02:53:46;-0.20;99.90
33811;DHT22;20119;48.334;16.206;2023-02-28T02:56:16;-0.20;99.90
33811;DHT22;20119;48.334;16.206;2023-02-28T02:58:47;-0.20;99.90
33811;DHT22;20119;48.334;16.206;2023-02-28T03:01:21;-0.30;99.90
33811;DHT22;20119;48.334;16.206;2023-02-28T03:03:56;-0.30;99.90
33811;DHT22;20119;48.334;16.206;2023-02-28T03:06:26;-0.30;99.90
33811;DHT22;20119;48.334;16.206;2023-02-28T03:08:54;-0.30;99.90
33811;DHT22;20119;48.334;16.206;2023-02-28T03:11:21;-0.30;99.90
33811;DHT22;20119;48.334;16.206;2023-02-28T03:14:21;-0.30;99.90
33811;DHT22;20119;48.334;16.206;2023-02-28T03:17:06;-0.30;99.90
33811;DHT22;20119;48.334;16.206;2023-02-28T03:19:45;-0.40;99.90
33811;DHT22;20119;48.334;16.206;2023-02-28T03:22:33;-0.40;99.90
33811;DHT22;20119;48.334;16.206;2023-02-28T03:25:07;-0.40;99.90
33811;DHT22;20119;48.334;16.206;2023-02-28T03:27:40;-0.50;99.90
33811;DHT22;20119;48.334;16.206;2023-02-28T03:30:12;-0.50;99.90
33811;DHT22;20119;48.334;16.206;2023-02-28T03:32:47;-0.60;99.90
33811;DHT22;20119;48.334;16.206;2023-02-28T03:35:21;-0.60;99.90
33811;DHT22;20119;48.334;16.206;2023-02-28T03:37:53;-0.60;99.90
33811;DHT22;20119;48.334;16.206;2023-02-28T03:40:23;-0.60;99.90
33811;DHT22;20119;48.334;16.206;2023-02-28T03:42:55;-0.70;99.90
33811;DHT22;20119;48.334;16.206;2023-02-28T03:45:26;-0.70;99.90
33811;DHT22;20119;48.334;16.206;2023-02-28T03:47:58;-0.70;99.90
33811;DHT22;20119;48.334;16.206;2023-02-28T03:50:31;-0.80;99.90
33811;DHT22;20119;48.334;16.206;2023-02-28T03:53:06;-0.80;99.90
33811;DHT22;20119;48.334;16.206;2023-02-28T03:55:40;-0.90;99.90
33811;DHT22;20119;48.334;16.206;2023-02-28T03:58:15;-1.00;99.90
33811;DHT22;20119;48.334;16.206;2023-02-28T04:00:47;-1.00;99.90
33811;DHT22;20119;48.334;16.206;2023-02-28T04:03:15;-1.00;99.90
33811;DHT22;20119;48.334;16.206;2023-02-28T04:05:50;-1.10;99.90
33811;DHT22;20119;48.334;16.206;2023-02-28T04:08:20;-1.00;99.90
33811;DHT22;20119;48.334;16.206;2023-02-28T04:10:53;-1.00;99.90
33811;DHT22;20119;48.334;16.206;2023-02-28T04:13:22;-1.00;99.90
33811;DHT22;20119;48.334;16.206;2023-02-28T04:15:50;-1.00;99.90
33811;DHT22;20119;48.334;16.206;2023-02-28T04:18:17;-1.10;99.90
33811;DHT22;20119;48.334;16.206;2023-02-28T04:20:44;-1.10;99.90
33811;DHT22;20119;48.334;16.206;2023-02-28T04:23:11;-1.10;99.90
33811;DHT22;20119;48.334;16.206;2023-02-28T04:25:40;-1.20;99.90
33811;DHT22;20119;48.334;16.206;2023-02-28T04:28:07;-1.20;99.90
33811;DHT22;20119;48.334;16.206;2023-02-28T04:30:35;-1.20;99.90
33811;DHT22;20119;48.334;16.206;2023-02-28T04:33:04;-1.20;99.90
33811;DHT22;20119;48.334;16.206;2023-02-28T04:35:31;-1.30;99.90
33811;DHT22;20119;48.334;16.206;2023-02-28T04:37:58;-1.30;99.90
33811;DHT22;20119;48.334;16.206;2023-02-28T04:40:26;-1.30;99.90
33811;DHT22;20119;48.334;16.206;2023-02-28T04:42:54;-1.30;99.90
33811;DHT22;20119;48.334;16.206;2023-02-28T04:45:22;-1.40;99.90
33811;DHT22;20119;48.334;16.206;2023-02-28T04:47:49;-1.30;99.90
33811;DHT22;20119;48.334;16.206;2023-02-28T04:50:26;-1.30;99.90
33811;DHT22;20119;48.334;16.206;2023-02-28T04:52:58;-1.30;99.90
33811;DHT22;20119;48.334;16.206;2023-02-28T04:55:30;-1.30;99.90
33811;DHT22;20119;48.334;16.206;2023-02-28T04:58:00;-1.20;99.90
33811;DHT22;20119;48.334;16.206;2023-02-28T05:00:27;-1.20;99.90
33811;DHT22;20119;48.334;16.206;2023-02-28T05:02:54;-1.20;99.90
33811;DHT22;20119;48.334;16.206;2023-02-28T05:05:21;-1.30;99.90
33811;DHT22;20119;48.334;16.206;2023-02-28T05:07:49;-1.30;99.90
33811;DHT22;20119;48.334;16.206;2023-02-28T05:10:16;-1.30;99.90
33811;DHT22;20119;48.334;16.206;2023-02-28T05:12:43;-1.30;99.90
33811;DHT22;20119;48.334;16.206;2023-02-28T05:15:13;-1.40;99.90
33811;DHT22;20119;48.334;16.206;2023-02-28T05:17:41;-1.40;99.90
33811;DHT22;20119;48.334;16.206;2023-02-28T05:20:10;-1.50;99.90
33811;DHT22;20119;48.334;16.206;2023-02-28T05:22:38;-1.50;99.90
33811;DHT22;20119;48.334;16.206;2023-02-28T05:25:06;-1.60;99.90
33811;DHT22;20119;48.334;16.206;2023-02-28T05:27:34;-1.80;99.90
33811;DHT22;20119;48.334;16.206;2023-02-28T05:30:01;-1.80;99.90
33811;DHT22;20119;48.334;16.206;2023-02-28T05:32:31;-1.80;99.90
33811;DHT22;20119;48.334;16.206;2023-02-28T05:34:58;-1.70;99.90
33811;DHT22;20119;48.334;16.206;2023-02-28T05:37:25;-1.80;99.90
33811;DHT22;20119;48.334;16.206;2023-02-28T05:39:52;-1.80;99.90
33811;DHT22;20119;48.334;16.206;2023-02-28T05:42:19;-1.80;99.90
33811;DHT22;20119;48.334;16.206;2023-02-28T05:44:46;-1.80;99.90
33811;DHT22;20119;48.334;16.206;2023-02-28T05:47:13;-1.90;99.90
33811;DHT22;20119;48.334;16.206;2023-02-28T05:49:43;-1.90;99.90
33811;DHT22;20119;48.334;16.206;2023-02-28T05:52:11;-1.90;99.90
33811;DHT22;20119;48.334;16.206;2023-02-28T05:54:38;-2.00;99.90
33811;DHT22;20119;48.334;16.206;2023-02-28T05:57:06;-1.90;99.90
33811;DHT22;20119;48.334;16.206;2023-02-28T05:59:33;-2.00;99.90
33811;DHT22;20119;48.334;16.206;2023-02-28T06:02:00;-2.00;99.90
33811;DHT22;20119;48.334;16.206;2023-02-28T06:04:28;-1.80;99.90
33811;DHT22;20119;48.334;16.206;2023-02-28T06:06:56;-1.70;99.90
33811;DHT22;20119;48.334;16.206;2023-02-28T06:09:24;-1.60;99.90
33811;DHT22;20119;48.334;16.206;2023-02-28T06:11:51;-1.60;99.90
33811;DHT22;20119;48.334;16.206;2023-02-28T06:14:20;-1.50;99.90
33811;DHT22;20119;48.334;16.206;2023-02-28T06:16:47;-1.40;99.90
33811;DHT22;20119;48.334;16.206;2023-02-28T06:19:15;-1.40;99.90
33811;DHT22;20119;48.334;16.206;2023-02-28T06:21:42;-1.30;99.90
33811;DHT22;20119;48.334;16.206;2023-02-28T06:24:11;-1.20;99.90
33811;DHT22;20119;48.334;16.206;2023-02-28T06:26:38;-1.20;99.90
33811;DHT22;20119;48.334;16.206;2023-02-28T06:29:06;-1.10;99.90
33811;DHT22;20119;48.334;16.206;2023-02-28T06:31:33;-1.10;99.90
33811;DHT22;20119;48.334;16.206;2023-02-28T06:34:00;-1.10;99.90
33811;DHT22;20119;48.334;16.206;2023-02-28T06:36:27;-1.10;99.90
33811;DHT22;20119;48.334;16.206;2023-02-28T06:38:54;-1.00;99.90
33811;DHT22;20119;48.334;16.206;2023-02-28T06:41:24;-1.00;99.90
33811;DHT22;20119;48.334;16.206;2023-02-28T06:43:52;-0.90;99.90
33811;DHT22;20119;48.334;16.206;2023-02-28T06:46:20;-0.80;99.90
33811;DHT22;20119;48.334;16.206;2023-02-28T06:48:47;-0.80;99.90
33811;DHT22;20119;48.334;16.206;2023-02-28T06:51:16;-0.70;99.90
33811;DHT22;20119;48.334;16.206;2023-02-28T06:53:46;-0.50;99.90
33811;DHT22;20119;48.334;16.206;2023-02-28T06:56:14;-0.60;99.90
33811;DHT22;20119;48.334;16.206;2023-02-28T06:58:46;-0.60;99.90
33811;DHT22;20119;48.334;16.206;2023-02-28T07:01:14;-0.60;99.90
33811;DHT22;20119;48.334;16.206;2023-02-28T07:03:41;-0.50;99.90
33811;DHT22;20119;48.334;16.206;2023-02-28T07:06:08;-0.50;99.90
33811;DHT22;20119;48.334;16.206;2023-02-28T07:08:35;-0.20;99.90
33811;DHT22;20119;48.334;16.206;2023-02-28T07:11:03;-0.20;99.90
33811;DHT22;20119;48.334;16.206;2023-02-28T07:13:30;0.00;99.90
33811;DHT22;20119;48.334;16.206;2023-02-28T07:16:00;0.10;99.90
33811;DHT22;20119;48.334;16.206;2023-02-28T07:18:28;0.20;99.90
33811;DHT22;20119;48.334;16.206;2023-02-28T07:20:56;0.20;99.90
33811;DHT22;20119;48.334;16.206;2023-02-28T07:23:24;0.30;99.90
33811;DHT22;20119;48.334;16.206;2023-02-28T07:25:51;0.40;99.90
33811;DHT22;20119;48.334;16.206;2023-02-28T07:28:18;0.40;99.90
33811;DHT22;20119;48.334;16.206;2023-02-28T07:30:45;0.30;99.90
33811;DHT22;20119;48.334;16.206;2023-02-28T07:33:15;0.30;99.90
33811;DHT22;20119;48.334;16.206;2023-02-28T07:35:43;0.40;99.90
33811;DHT22;20119;48.334;16.206;2023-02-28T07:38:10;0.40;99.90
33811;DHT22;20119;48.334;16.206;2023-02-28T07:40:39;0.40;99.90
33811;DHT22;20119;48.334;16.206;2023-02-28T07:43:06;0.50;99.90
33811;DHT22;20119;48.334;16.206;2023-02-28T07:45:33;0.60;99.90
33811;DHT22;20119;48.334;16.206;2023-02-28T07:48:01;0.60;99.90
33811;DHT22;20119;48.334;16.206;2023-02-28T07:50:30;0.80;99.90
33811;DHT22;20119;48.334;16.206;2023-02-28T07:52:58;0.90;99.90
33811;DHT22;20119;48.334;16.206;2023-02-28T07:55:25;1.10;99.90
33811;DHT22;20119;48.334;16.206;2023-02-28T07:57:52;1.20;99.90
33811;DHT22;20119;48.334;16.206;2023-02-28T08:00:20;1.30;99.90
33811;DHT22;20119;48.334;16.206;2023-02-28T08:02:48;1.30;99.90
33811;DHT22;20119;48.334;16.206;2023-02-28T08:05:15;1.30;99.90
33811;DHT22;20119;48.334;16.206;2023-02-28T08:07:44;1.30;99.90
33811;DHT22;20119;48.334;16.206;2023-02-28T08:10:13;1.50;99.90
33811;DHT22;20119;48.334;16.206;2023-02-28T08:12:40;1.50;99.90
33811;DHT22;20119;48.334;16.206;2023-02-28T08:15:08;1.40;99.90
33811;DHT22;20119;48.334;16.206;2023-02-28T08:17:36;1.30;99.90
33811;DHT22;20119;48.334;16.206;2023-02-28T08:20:03;1.40;99.90
33811;DHT22;20119;48.334;16.206;2023-02-28T08:22:31;1.70;99.90
33811;DHT22;20119;48.334;16.206;2023-02-28T08:25:00;1.70;99.90
33811;DHT22;20119;48.334;16.206;2023-02-28T08:27:27;1.80;99.90
33811;DHT22;20119;48.334;16.206;2023-02-28T08:29:54;1.80;99.90
33811;DHT22;20119;48.334;16.206;2023-02-28T08:32:22;1.80;99.90
33811;DHT22;20119;48.334;16.206;2023-02-28T08:34:50;1.80;99.90
33811;DHT22;20119;48.334;16.206;2023-02-28T08:37:18;2.00;99.90
33811;DHT22;20119;48.334;16.206;2023-02-28T08:39:46;2.10;99.90
33811;DHT22;20119;48.334;16.206;2023-02-28T08:42:14;2.10;99.90
33811;DHT22;20119;48.334;16.206;2023-02-28T08:44:41;2.10;99.90
33811;DHT22;20119;48.334;16.206;2023-02-28T08:47:09;2.10;99.90
33811;DHT22;20119;48.334;16.206;2023-02-28T08:49:37;1.90;99.90
33811;DHT22;20119;48.334;16.206;2023-02-28T08:52:04;1.70;99.90
33811;DHT22;20119;48.334;16.206;2023-02-28T08:54:32;1.60;99.90
33811;DHT22;20119;48.334;16.206;2023-02-28T08:57:00;2.00;99.90
33811;DHT22;20119;48.334;16.206;2023-02-28T08:59:29;2.20;99.90
33811;DHT22;20119;48.334;16.206;2023-02-28T09:01:57;2.20;99.90
33811;DHT22;20119;48.334;16.206;2023-02-28T09:04:24;2.30;99.90
33811;DHT22;20119;48.334;16.206;2023-02-28T09:06:51;2.50;99.90
33811;DHT22;20119;48.334;16.206;2023-02-28T09:09:18;2.70;99.90
33811;DHT22;20119;48.334;16.206;2023-02-28T09:11:45;3.00;99.90
33811;DHT22;20119;48.334;16.206;2023-02-28T09:14:12;3.10;99.90
33811;DHT22;20119;48.334;16.206;2023-02-28T09:16:41;3.20;99.90
33811;DHT22;20119;48.334;16.206;2023-02-28T09:19:10;3.70;99.90
33811;DHT22;20119;48.334;16.206;2023-02-28T09:21:38;4.20;99.90
33811;DHT22;20119;48.334;16.206;2023-02-28T09:24:07;4.10;99.90
33811;DHT22;20119;48.334;16.206;2023-02-28T09:26:35;4.10;99.90
33811;DHT22;20119;48.334;16.206;2023-02-28T09:29:02;4.30;99.90
33811;DHT22;20119;48.334;16.206;2023-02-28T09:31:29;3.90;99.90
33811;DHT22;20119;48.334;16.206;2023-02-28T09:33:58;4.00;99.90
33811;DHT22;20119;48.334;16.206;2023-02-28T09:36:27;4.20;99.90
33811;DHT22;20119;48.334;16.206;2023-02-28T09:38:55;4.10;99.90
33811;DHT22;20119;48.334;16.206;2023-02-28T09:41:24;4.10;99.90
33811;DHT22;20119;48.334;16.206;2023-02-28T09:43:55;3.60;99.90
33811;DHT22;20119;48.334;16.206;2023-02-28T09:46:27;3.60;99.90
33811;DHT22;20119;48.334;16.206;2023-02-28T09:49:01;3.80;99.90
33811;DHT22;20119;48.334;16.206;2023-02-28T09:51:34;3.50;99.90
33811;DHT22;20119;48.334;16.206;2023-02-28T09:54:03;3.40;99.90
33811;DHT22;20119;48.334;16.206;2023-02-28T09:56:36;3.60;99.90
33811;DHT22;20119;48.334;16.206;2023-02-28T09:59:13;3.70;99.90
33811;DHT22;20119;48.334;16.206;2023-02-28T10:01:45;3.60;99.90
33811;DHT22;20119;48.334;16.206;2023-02-28T10:04:37;3.50;99.90
33811;DHT22;20119;48.334;16.206;2023-02-28T10:07:15;3.60;99.90
33811;DHT22;20119;48.334;16.206;2023-02-28T10:09:48;3.50;99.90
33811;DHT22;20119;48.334;16.206;2023-02-28T10:12:16;3.50;99.90
33811;DHT22;20119;48.334;16.206;2023-02-28T10:14:46;3.80;99.90
33811;DHT22;20119;48.334;16.206;2023-02-28T10:17:15;4.10;99.90
33811;DHT22;20119;48.334;16.206;2023-02-28T10:19:54;3.90;99.90
33811;DHT22;20119;48.334;16.206;2023-02-28T10:22:25;4.00;99.90
33811;DHT22;20119;48.334;16.206;2023-02-28T10:24:55;4.00;99.90
33811;DHT22;20119;48.334;16.206;2023-02-28T10:27:29;3.50;99.90
33811;DHT22;20119;48.334;16.206;2023-02-28T10:29:58;3.50;99.90
33811;DHT22;20119;48.334;16.206;2023-02-28T10:32:27;3.70;99.90
33811;DHT22;20119;48.334;16.206;2023-02-28T10:37:45;4.00;99.90
33811;DHT22;20119;48.334;16.206;2023-02-28T10:40:27;4.30;99.90
33811;DHT22;20119;48.334;16.206;2023-02-28T10:42:56;4.50;99.90
33811;DHT22;20119;48.334;16.206;2023-02-28T10:45:25;4.70;99.90
33811;DHT22;20119;48.334;16.206;2023-02-28T10:47:54;4.40;99.90
33811;DHT22;20119;48.334;16.206;2023-02-28T10:50:33;4.00;99.90
33811;DHT22;20119;48.334;16.206;2023-02-28T10:53:22;4.10;99.90
33811;DHT22;20119;48.334;16.206;2023-02-28T10:55:57;4.50;99.90
33811;DHT22;20119;48.334;16.206;2023-02-28T10:58:26;3.90;99.90
33811;DHT22;20119;48.334;16.206;2023-02-28T11:00:54;4.20;99.90
33811;DHT22;20119;48.334;16.206;2023-02-28T11:03:30;4.20;99.90
33811;DHT22;20119;48.334;16.206;2023-02-28T11:05:57;4.10;99.90
33811;DHT22;20119;48.334;16.206;2023-02-28T11:08:26;3.90;99.90
33811;DHT22;20119;48.334;16.206;2023-02-28T11:10:55;4.30;99.90
33811;DHT22;20119;48.334;16.206;2023-02-28T11:13:27;4.30;99.90
33811;DHT22;20119;48.334;16.206;2023-02-28T11:15:58;4.30;99.90
33811;DHT22;20119;48.334;16.206;2023-02-28T11:18:29;4.50;99.90
33811;DHT22;20119;48.334;16.206;2023-02-28T11:20:58;4.50;99.90
33811;DHT22;20119;48.334;16.206;2023-02-28T11:23:30;4.60;99.90
33811;DHT22;20119;48.334;16.206;2023-02-28T11:26:00;4.60;99.90
33811;DHT22;20119;48.334;16.206;2023-02-28T11:28:29;4.80;99.90
33811;DHT22;20119;48.334;16.206;2023-02-28T11:31:05;5.00;99.90
33811;DHT22;20119;48.334;16.206;2023-02-28T11:33:40;5.10;99.90
33811;DHT22;20119;48.334;16.206;2023-02-28T11:36:12;5.20;99.90
33811;DHT22;20119;48.334;16.206;2023-02-28T11:38:42;5.30;99.90
33811;DHT22;20119;48.334;16.206;2023-02-28T11:41:29;5.20;99.90
33811;DHT22;20119;48.334;16.206;2023-02-28T11:44:16;5.20;99.90
33811;DHT22;20119;48.334;16.206;2023-02-28T11:46:49;5.30;99.90
33811;DHT22;20119;48.334;16.206;2023-02-28T11:49:29;5.10;99.90
33811;DHT22;20119;48.334;16.206;2023-02-28T11:52:00;5.00;99.90
33811;DHT22;20119;48.334;16.206;2023-02-28T11:54:57;4.90;99.90
33811;DHT22;20119;48.334;16.206;2023-02-28T11:57:38;5.00;99.90
33811;DHT22;20119;48.334;16.206;2023-02-28T12:00:24;5.00;99.90
33811;DHT22;20119;48.334;16.206;2023-02-28T12:03:03;5.00;99.90
33811;DHT22;20119;48.334;16.206;2023-02-28T12:05:37;5.00;99.90
33811;DHT22;20119;48.334;16.206;2023-02-28T12:08:20;5.00;99.90
33811;DHT22;20119;48.334;16.206;2023-02-28T12:11:01;4.90;99.90
33811;DHT22;20119;48.334;16.206;2023-02-28T12:13:37;5.00;99.90
33811;DHT22;20119;48.334;16.206;2023-02-28T12:16:28;5.10;99.90
33811;DHT22;20119;48.334;16.206;2023-02-28T12:19:17;4.90;99.90
33811;DHT22;20119;48.334;16.206;2023-02-28T12:22:00;4.80;99.90
33811;DHT22;20119;48.334;16.206;2023-02-28T12:24:45;4.90;99.90
33811;DHT22;20119;48.334;16.206;2023-02-28T12:27:19;5.20;99.90
33811;DHT22;20119;48.334;16.206;2023-02-28T12:29:52;5.30;99.90
33811;DHT22;20119;48.334;16.206;2023-02-28T12:32:23;5.20;99.90
33811;DHT22;20119;48.334;16.206;2023-02-28T12:34:56;5.20;99.90
33811;DHT22;20119;48.334;16.206;2023-02-28T12:37:31;5.30;99.90
33811;DHT22;20119;48.334;16.206;2023-02-28T12:40:02;5.60;99.90
33811;DHT22;20119;48.334;16.206;2023-02-28T12:42:35;5.50;99.90
33811;DHT22;20119;48.334;16.206;2023-02-28T12:45:10;5.60;99.90
33811;DHT22;20119;48.334;16.206;2023-02-28T12:47:42;5.70;99.90
33811;DHT22;20119;48.334;16.206;2023-02-28T12:50:12;5.80;99.90
33811;DHT22;20119;48.334;16.206;2023-02-28T12:52:46;5.90;99.90
33811;DHT22;20119;48.334;16.206;2023-02-28T12:55:19;5.80;99.90
33811;DHT22;20119;48.334;16.206;2023-02-28T12:57:58;5.90;99.90
33811;DHT22;20119;48.334;16.206;2023-02-28T13:00:33;6.10;99.90
33811;DHT22;20119;48.334;16.206;2023-02-28T13:03:30;6.10;99.90
33811;DHT22;20119;48.334;16.206;2023-02-28T13:06:08;5.90;99.90
33811;DHT22;20119;48.334;16.206;2023-02-28T13:09:02;5.70;99.90
33811;DHT22;20119;48.334;16.206;2023-02-28T13:11:33;5.60;99.90
33811;DHT22;20119;48.334;16.206;2023-02-28T13:14:04;5.60;99.90
33811;DHT22;20119;48.334;16.206;2023-02-28T13:16:54;5.70;99.90
33811;DHT22;20119;48.334;16.206;2023-02-28T13:19:22;5.60;99.90
33811;DHT22;20119;48.334;16.206;2023-02-28T13:21:51;5.40;99.90
33811;DHT22;20119;48.334;16.206;2023-02-28T13:24:40;5.60;99.90
33811;DHT22;20119;48.334;16.206;2023-02-28T13:27:33;5.70;99.90
33811;DHT22;20119;48.334;16.206;2023-02-28T13:33:26;6.00;99.90
33811;DHT22;20119;48.334;16.206;2023-02-28T13:38:56;5.70;99.90
33811;DHT22;20119;48.334;16.206;2023-02-28T13:41:46;5.70;99.90
33811;DHT22;20119;48.334;16.206;2023-02-28T13:44:16;5.50;99.90
33811;DHT22;20119;48.334;16.206;2023-02-28T13:49:51;5.50;99.90
33811;DHT22;20119;48.334;16.206;2023-02-28T13:52:23;5.30;99.90
33811;DHT22;20119;48.334;16.206;2023-02-28T13:57:49;5.40;99.90
33811;DHT22;20119;48.334;16.206;2023-02-28T14:00:33;5.40;99.90
33811;DHT22;20119;48.334;16.206;2023-02-28T14:03:23;5.60;99.90
33811;DHT22;20119;48.334;16.206;2023-02-28T14:06:26;5.40;99.90
33811;DHT22;20119;48.334;16.206;2023-02-28T14:08:58;5.30;99.90
33811;DHT22;20119;48.334;16.206;2023-02-28T14:11:32;5.10;99.90
33811;DHT22;20119;48.334;16.206;2023-02-28T14:14:01;5.10;99.90
33811;DHT22;20119;48.334;16.206;2023-02-28T14:16:38;5.10;99.90
33811;DHT22;20119;48.334;16.206;2023-02-28T14:19:12;4.90;99.90
33811;DHT22;20119;48.334;16.206;2023-02-28T14:21:56;4.90;99.90
33811;DHT22;20119;48.334;16.206;2023-02-28T14:27:37;5.00;99.90
33811;DHT22;20119;48.334;16.206;2023-02-28T14:30:40;5.20;99.90
33811;DHT22;20119;48.334;16.206;2023-02-28T14:33:27;5.20;99.90
33811;DHT22;20119;48.334;16.206;2023-02-28T14:36:03;5.20;99.90
33811;DHT22;20119;48.334;16.206;2023-02-28T14:38:39;5.30;99.90
33811;DHT22;20119;48.334;16.206;2023-02-28T14:41:16;5.40;99.90
33811;DHT22;20119;48.334;16.206;2023-02-28T14:43:51;5.30;99.90
33811;DHT22;20119;48.334;16.206;2023-02-28T14:46:20;5.30;99.90
33811;DHT22;20119;48.334;16.206;2023-02-28T14:48:49;5.30;99.90
33811;DHT22;20119;48.334;16.206;2023-02-28T14:51:19;5.40;99.90
33811;DHT22;20119;48.334;16.206;2023-02-28T14:53:51;5.30;99.90
33811;DHT22;20119;48.334;16.206;2023-02-28T14:56:21;5.30;99.90
33811;DHT22;20119;48.334;16.206;2023-02-28T14:58:54;5.30;99.90
33811;DHT22;20119;48.334;16.206;2023-02-28T15:01:23;5.30;99.90
33811;DHT22;20119;48.334;16.206;2023-02-28T15:03:58;5.40;99.90
33811;DHT22;20119;48.334;16.206;2023-02-28T15:06:26;5.50;99.90
33811;DHT22;20119;48.334;16.206;2023-02-28T15:09:10;5.60;99.90
33811;DHT22;20119;48.334;16.206;2023-02-28T15:11:39;5.60;99.90
33811;DHT22;20119;48.334;16.206;2023-02-28T15:14:12;5.50;99.90
33811;DHT22;20119;48.334;16.206;2023-02-28T15:16:43;5.60;99.90
33811;DHT22;20119;48.334;16.206;2023-02-28T15:19:14;5.60;99.90
33811;DHT22;20119;48.334;16.206;2023-02-28T15:21:48;5.60;99.90
33811;DHT22;20119;48.334;16.206;2023-02-28T15:24:21;5.50;99.90
33811;DHT22;20119;48.334;16.206;2023-02-28T15:26:54;5.40;99.90
33811;DHT22;20119;48.334;16.206;2023-02-28T15:29:25;5.40;99.90
33811;DHT22;20119;48.334;16.206;2023-02-28T15:31:58;5.30;99.90
33811;DHT22;20119;48.334;16.206;2023-02-28T15:34:33;5.20;99.90
33811;DHT22;20119;48.334;16.206;2023-02-28T15:37:02;5.30;99.90
33811;DHT22;20119;48.334;16.206;2023-02-28T15:39:42;5.30;99.90
33811;DHT22;20119;48.334;16.206;2023-02-28T15:42:11;5.30;99.90
33811;DHT22;20119;48.334;16.206;2023-02-28T15:44:38;5.20;99.90
33811;DHT22;20119;48.334;16.206;2023-02-28T15:47:07;5.10;99.90
33811;DHT22;20119;48.334;16.206;2023-02-28T15:49:48;5.10;99.90
33811;DHT22;20119;48.334;16.206;2023-02-28T15:52:18;4.90;99.90
33811;DHT22;20119;48.334;16.206;2023-02-28T15:54:47;4.90;99.90
33811;DHT22;20119;48.334;16.206;2023-02-28T15:57:19;4.80;99.90
33811;DHT22;20119;48.334;16.206;2023-02-28T15:59:52;4.80;99.90
33811;DHT22;20119;48.334;16.206;2023-02-28T16:02:22;4.90;99.90
33811;DHT22;20119;48.334;16.206;2023-02-28T16:05:02;4.80;99.90
33811;DHT22;20119;48.334;16.206;2023-02-28T16:07:30;4.80;99.90
33811;DHT22;20119;48.334;16.206;2023-02-28T16:09:59;4.70;99.90
33811;DHT22;20119;48.334;16.206;2023-02-28T16:12:28;4.80;99.90